createdAt,value
2023-04-16T00:01:37.328Z,98913.03
2023-04-16T00:04:06.722Z,98916.66
2023-04-16T00:06:35.463Z,98913.63
2023-04-16T00:09:04.257Z,98904.59
2023-04-16T00:11:32.835Z,98911.41
2023-04-16T00:14:01.574Z,98918.03
2023-04-16T00:16:31.751Z,98916.81
2023-04-16T00:19:00.557Z,98922.66
2023-04-16T00:21:29.170Z,98922.66
2023-04-16T00:23:57.925Z,98923.66
2023-04-16T00:26:26.640Z,98917.84
2023-04-16T00:28:55.398Z,98919.47
2023-04-16T00:31:28.713Z,98927.47
2023-04-16T00:33:59.219Z,98918.25
2023-04-16T00:36:30.005Z,98923.25
2023-04-16T00:38:58.706Z,98922.22
2023-04-16T00:41:27.352Z,98923.84
2023-04-16T00:43:55.988Z,98926.06
2023-04-16T00:46:24.944Z,98924.25
2023-04-16T00:48:57.956Z,98923.25
2023-04-16T00:51:27.027Z,98920.38
2023-04-16T00:53:55.762Z,98928.44
2023-04-16T00:56:25.658Z,98925.44
2023-04-16T00:58:56.111Z,98917.03
2023-04-16T01:01:24.699Z,98920.84
2023-04-16T01:03:53.494Z,98924.63
2023-04-16T01:06:23.642Z,98917.81
2023-04-16T01:08:52.216Z,98914.03
2023-04-16T01:11:21.055Z,98922.22
2023-04-16T01:13:49.656Z,98926.25
2023-04-16T01:16:18.356Z,98921.25
2023-04-16T01:18:47.068Z,98929.84
2023-04-16T01:21:16.991Z,98921.44
2023-04-16T01:23:45.543Z,98929.66
2023-04-16T01:26:14.108Z,98931.06
2023-04-16T01:28:42.831Z,98927.03
2023-04-16T01:31:11.428Z,98932.25
2023-04-16T01:33:40.065Z,98932.25
2023-04-16T01:36:08.790Z,98939.44
2023-04-16T01:38:38.773Z,98941.06
2023-04-16T01:41:07.400Z,98937.47
2023-04-16T01:43:37.235Z,98932.66
2023-04-16T01:46:14.827Z,98943.50
2023-04-16T01:48:43.438Z,98937.84
2023-04-16T01:51:12.091Z,98933.03
2023-04-16T01:53:42.163Z,98933.44
2023-04-16T01:56:10.837Z,98941.06
2023-04-16T01:58:39.799Z,98937.25
2023-04-16T02:01:08.464Z,98933.44
2023-04-16T02:03:37.169Z,98938.25
2023-04-16T02:06:05.911Z,98929.84
2023-04-16T02:08:34.551Z,98935.44
2023-04-16T02:11:04.526Z,98929.03
2023-04-16T02:13:33.141Z,98937.84
2023-04-16T02:16:02.509Z,98933.84
2023-04-16T02:18:31.226Z,98933.75
2023-04-16T02:21:00.507Z,98931.34
2023-04-16T02:23:29.197Z,98938.97
2023-04-16T02:25:57.950Z,98938.41
2023-04-16T02:28:27.940Z,98938.41
2023-04-16T02:30:56.625Z,98947.03
2023-04-16T02:33:26.258Z,98938.03
2023-04-16T02:35:54.885Z,98943.41
2023-04-16T02:38:23.595Z,98943.41
2023-04-16T02:40:52.183Z,98941.00
2023-04-16T02:43:20.758Z,98945.66
2023-04-16T02:45:51.751Z,98946.47
2023-04-16T02:48:20.362Z,98949.84
2023-04-16T02:50:49.004Z,98952.25
2023-04-16T02:53:17.573Z,98948.22
2023-04-16T02:55:52.444Z,98954.22
2023-04-16T02:58:21.422Z,98948.03
2023-04-16T03:00:51.740Z,98945.81
2023-04-16T03:03:21.093Z,98950.84
2023-04-16T03:05:49.888Z,98960.25
2023-04-16T03:08:18.430Z,98952.44
2023-04-16T03:10:46.994Z,98944.41
2023-04-16T03:13:15.631Z,98954.22
2023-04-16T03:15:49.288Z,98955.84
2023-04-16T03:18:19.273Z,98953.84
2023-04-16T03:20:52.675Z,98950.25
2023-04-16T03:23:21.437Z,98957.47
2023-04-16T03:25:50.057Z,98956.63
2023-04-16T03:28:18.662Z,98957.22
2023-04-16T03:30:51.741Z,98958.00
2023-04-16T03:33:22.710Z,98968.00
2023-04-16T03:35:57.124Z,98971.03
2023-04-16T03:38:26.562Z,98966.63
2023-04-16T03:40:55.250Z,98969.84
2023-04-16T03:43:24.043Z,98978.84
2023-04-16T03:45:52.625Z,98977.66
2023-04-16T03:48:22.662Z,98969.44
2023-04-16T03:50:51.268Z,98983.91
2023-04-16T03:53:19.888Z,98974.66
2023-04-16T03:55:50.956Z,98982.66
2023-04-16T03:58:19.647Z,98981.47
2023-04-16T04:00:48.297Z,98974.66
2023-04-16T04:03:18.572Z,98972.25
2023-04-16T04:05:48.793Z,98974.84
2023-04-16T04:08:17.422Z,98979.09
2023-04-16T04:10:46.707Z,98977.88
2023-04-16T04:13:15.467Z,98986.84
2023-04-16T04:15:45.078Z,98989.44
2023-04-16T04:18:13.705Z,98993.47
2023-04-16T04:20:42.282Z,98990.44
2023-04-16T04:23:12.198Z,98990.25
2023-04-16T04:25:40.777Z,98989.25
2023-04-16T04:28:09.432Z,98993.63
2023-04-16T04:30:38.089Z,98998.63
2023-04-16T04:33:06.842Z,99001.03
2023-04-16T04:35:35.493Z,98999.63
2023-04-16T04:38:04.303Z,98999.44
2023-04-16T04:40:34.287Z,99006.44
2023-04-16T04:43:02.856Z,99007.09
2023-04-16T04:45:32.180Z,99003.88
2023-04-16T04:48:00.888Z,99009.69
2023-04-16T04:50:29.504Z,99013.28
2023-04-16T04:52:58.134Z,99018.28
2023-04-16T04:55:26.786Z,99015.69
2023-04-16T04:57:56.778Z,99022.47
2023-04-16T05:00:25.370Z,99019.06
2023-04-16T05:02:54.039Z,99029.69
2023-04-16T05:05:23.015Z,99030.28
2023-04-16T05:07:51.639Z,99025.50
2023-04-16T05:10:20.379Z,99037.34
2023-04-16T05:12:49.242Z,99038.56
2023-04-16T05:15:19.219Z,99044.78
2023-04-16T05:17:47.909Z,99058.72
2023-04-16T05:20:16.623Z,99053.50
2023-04-16T05:22:45.285Z,99051.94
2023-04-16T05:25:13.862Z,99063.38
2023-04-16T05:27:42.407Z,99067.97
2023-04-16T05:30:11.571Z,99060.78
2023-04-16T05:32:41.993Z,99063.00
2023-04-16T05:35:11.038Z,99065.41
2023-04-16T05:37:39.705Z,99065.22
2023-04-16T05:40:09.837Z,99081.44
2023-04-16T05:42:38.513Z,99075.63
2023-04-16T05:45:08.326Z,99075.44
2023-04-16T05:47:36.984Z,99073.41
2023-04-16T05:50:08.145Z,99084.22
2023-04-16T05:52:36.744Z,99078.38
2023-04-16T05:55:05.854Z,99086.00
2023-04-16T05:57:34.688Z,99079.00
2023-04-16T06:00:03.737Z,99089.59
2023-04-16T06:02:32.549Z,99087.59
2023-04-16T06:05:01.296Z,99098.81
2023-04-16T06:07:31.284Z,99091.38
2023-04-16T06:09:59.910Z,99096.59
2023-04-16T06:12:28.498Z,99094.72
2023-04-16T06:14:57.115Z,99096.38
2023-04-16T06:17:25.807Z,99093.13
2023-04-16T06:19:54.439Z,99100.75
2023-04-16T06:22:23.026Z,99092.94
2023-04-16T06:24:53.794Z,99101.34
2023-04-16T06:27:22.353Z,99100.97
2023-04-16T06:29:51.367Z,99099.97
2023-04-16T06:32:20.102Z,99099.78
2023-04-16T06:34:48.741Z,99104.78
2023-04-16T06:37:17.364Z,99107.00
2023-04-16T06:39:45.997Z,99103.63
2023-04-16T06:42:16.133Z,99102.44
2023-04-16T06:44:44.702Z,99099.19
2023-04-16T06:47:13.334Z,99103.22
2023-04-16T06:49:41.936Z,99104.78
2023-04-16T06:52:10.637Z,99112.03
2023-04-16T06:54:39.336Z,99106.81
2023-04-16T06:57:07.992Z,99110.00
2023-04-16T06:59:37.981Z,99117.22
2023-04-16T07:02:06.726Z,99118.84
2023-04-16T07:04:35.806Z,99120.09
2023-04-16T07:07:04.390Z,99121.31
2023-04-16T07:09:32.999Z,99118.28
2023-04-16T07:12:01.643Z,99121.72
2023-04-16T07:14:30.220Z,99121.25
2023-04-16T07:17:00.354Z,99122.88
2023-04-16T07:19:32.405Z,99127.50
2023-04-16T07:22:01.218Z,99117.53
2023-04-16T07:24:29.929Z,99130.38
2023-04-16T07:26:58.678Z,99128.56
2023-04-16T07:29:27.240Z,99125.53
2023-04-16T07:31:55.862Z,99133.75
2023-04-16T07:34:25.873Z,99139.41
2023-04-16T07:36:54.465Z,99138.59
2023-04-16T07:39:23.088Z,99142.63
2023-04-16T07:41:51.694Z,99142.56
2023-04-16T07:44:20.333Z,99139.81
2023-04-16T07:46:49.092Z,99141.06
2023-04-16T07:49:17.689Z,99146.88
2023-04-16T07:51:48.454Z,99149.31
2023-04-16T07:54:17.127Z,99152.50
2023-04-16T07:56:45.774Z,99147.09
2023-04-16T07:59:22.573Z,99152.47
2023-04-16T08:01:53.986Z,99161.94
2023-04-16T08:04:25.404Z,99156.16
2023-04-16T08:06:56.430Z,99155.72
2023-04-16T08:09:28.544Z,99166.19
2023-04-16T08:11:57.552Z,99162.78
2023-04-16T08:14:26.687Z,99166.63
2023-04-16T08:16:55.409Z,99166.03
2023-04-16T08:19:24.029Z,99180.50
2023-04-16T08:21:52.624Z,99182.06
2023-04-16T08:24:22.598Z,99185.28
2023-04-16T08:26:51.515Z,99190.28
2023-04-16T08:29:25.073Z,99190.88
2023-04-16T08:31:54.012Z,99198.03
2023-04-16T08:34:22.982Z,99195.63
2023-04-16T08:36:51.910Z,99204.03
2023-04-16T08:39:22.566Z,99204.00
2023-04-16T08:41:51.206Z,99202.81
2023-04-16T08:44:22.435Z,99211.00
2023-04-16T08:46:52.546Z,99212.81
2023-04-16T08:49:21.237Z,99213.59
2023-04-16T08:51:52.196Z,99209.88
2023-04-16T08:54:33.279Z,99209.09
2023-04-16T08:57:03.277Z,99215.13
2023-04-16T08:59:32.079Z,99213.56
2023-04-16T09:02:01.970Z,99215.13
2023-04-16T09:04:30.690Z,99209.09
2023-04-16T09:06:59.855Z,99213.34
2023-04-16T09:09:30.406Z,99222.22
2023-04-16T09:11:59.025Z,99221.41
2023-04-16T09:14:28.094Z,99223.78
2023-04-16T09:16:57.325Z,99228.19
2023-04-16T09:19:25.922Z,99226.03
2023-04-16T09:21:54.628Z,99220.63
2023-04-16T09:24:23.263Z,99231.69
2023-04-16T09:26:53.586Z,99235.34
2023-04-16T09:29:36.079Z,99229.16
2023-04-16T09:32:05.629Z,99230.78
2023-04-16T09:34:34.925Z,99237.81
2023-04-16T09:37:16.187Z,99239.56
2023-04-16T09:39:45.040Z,99242.41
2023-04-16T09:42:15.369Z,99251.59
2023-04-16T09:44:44.082Z,99244.78
2023-04-16T09:47:12.825Z,99246.81
2023-04-16T09:49:43.069Z,99242.41
2023-04-16T09:52:14.663Z,99250.47
2023-04-16T09:54:50.119Z,99261.09
2023-04-16T09:57:24.252Z,99252.53
2023-04-16T09:59:54.511Z,99250.31
2023-04-16T10:02:28.236Z,99255.94
2023-04-16T10:05:00.336Z,99260.94
2023-04-16T10:07:30.272Z,99260.41
2023-04-16T10:09:59.537Z,99263.63
2023-04-16T10:12:30.654Z,99257.28
2023-04-16T10:14:59.332Z,99269.75
2023-04-16T10:17:29.884Z,99270.16
2023-04-16T10:19:59.265Z,99267.75
2023-04-16T10:22:28.088Z,99262.50
2023-04-16T10:24:56.741Z,99272.38
2023-04-16T10:27:25.805Z,99268.97
2023-04-16T10:29:56.631Z,99274.06
2023-04-16T10:32:28.515Z,99271.13
2023-04-16T10:34:57.465Z,99273.09
2023-04-16T10:37:31.182Z,99274.13
2023-04-16T10:40:00.485Z,99275.69
2023-04-16T10:42:29.087Z,99273.53
2023-04-16T10:45:01.593Z,99284.94
2023-04-16T10:47:30.486Z,99285.53
2023-04-16T10:49:59.603Z,99275.09
2023-04-16T10:52:30.499Z,99279.53
2023-04-16T10:55:00.879Z,99275.75
2023-04-16T10:57:30.588Z,99275.16
2023-04-16T10:59:59.378Z,99275.16
2023-04-16T11:02:30.904Z,99275.59
2023-04-16T11:04:59.757Z,99278.34
2023-04-16T11:07:34.581Z,99286.41
2023-04-16T11:10:06.049Z,99276.38
2023-04-16T11:12:37.769Z,99284.44
2023-04-16T11:15:08.199Z,99280.06
2023-04-16T11:17:40.721Z,99289.91
2023-04-16T11:20:18.105Z,99284.69
2023-04-16T11:22:49.895Z,99282.31
2023-04-16T11:25:22.616Z,99289.19
2023-04-16T11:27:51.846Z,99285.59
2023-04-16T11:30:29.796Z,99292.78
2023-04-16T11:32:59.943Z,99288.28
2023-04-16T11:35:28.604Z,99286.31
2023-04-16T11:37:58.118Z,99285.72
2023-04-16T11:40:30.869Z,99295.00
2023-04-16T11:43:02.729Z,99299.66
2023-04-16T11:45:31.454Z,99297.66
2023-04-16T11:48:01.516Z,99293.50
2023-04-16T11:50:30.262Z,99299.94
2023-04-16T11:53:05.081Z,99294.53
2023-04-16T11:55:33.792Z,99292.78
2023-04-16T11:58:13.068Z,99293.81
2023-04-16T12:00:42.615Z,99304.25
2023-04-16T12:03:12.959Z,99303.47
2023-04-16T12:05:41.792Z,99304.97
2023-04-16T12:08:11.461Z,99295.97
2023-04-16T12:10:55.921Z,99293.22
2023-04-16T12:13:24.765Z,99295.16
2023-04-16T12:15:54.960Z,99299.81
2023-04-16T12:18:27.018Z,99297.03
2023-04-16T12:20:55.992Z,99305.22
2023-04-16T12:23:26.337Z,99300.44
2023-04-16T12:25:55.388Z,99306.47
2023-04-16T12:28:31.585Z,99304.00
2023-04-16T12:31:00.577Z,99311.09
2023-04-16T12:33:30.709Z,99305.63
2023-04-16T12:35:59.321Z,99313.06
2023-04-16T12:38:28.815Z,99307.84
2023-04-16T12:40:58.430Z,99319.31
2023-04-16T12:43:27.592Z,99305.72
2023-04-16T12:45:56.350Z,99311.72
2023-04-16T12:48:25.019Z,99305.72
2023-04-16T12:50:56.016Z,99308.72
2023-04-16T12:53:24.780Z,99306.47
2023-04-16T12:55:53.407Z,99308.28
2023-04-16T12:58:22.046Z,99311.28
2023-04-16T13:00:50.684Z,99307.28
2023-04-16T13:03:20.979Z,99308.91
2023-04-16T13:05:49.950Z,99310.16
2023-04-16T13:08:19.971Z,99307.72
2023-04-16T13:10:48.549Z,99310.16
2023-04-16T13:13:17.111Z,99302.13
2023-04-16T13:15:46.020Z,99307.78
2023-04-16T13:18:14.684Z,99303.53
2023-04-16T13:20:43.331Z,99303.34
2023-04-16T13:23:11.960Z,99307.94
2023-04-16T13:25:41.930Z,99308.91
2023-04-16T13:28:10.629Z,99307.09
2023-04-16T13:30:39.304Z,99307.09
2023-04-16T13:33:08.983Z,99311.50
2023-04-16T13:35:37.665Z,99310.50
2023-04-16T13:38:06.450Z,99314.53
2023-04-16T13:40:35.098Z,99315.72
2023-04-16T13:43:05.961Z,99318.13
2023-04-16T13:45:36.436Z,99318.13
2023-04-16T13:48:05.556Z,99308.31
2023-04-16T13:50:35.157Z,99309.91
2023-04-16T13:53:03.779Z,99320.97
2023-04-16T13:55:32.703Z,99316.94
2023-04-16T13:58:01.497Z,99319.94
2023-04-16T14:00:31.643Z,99310.31
2023-04-16T14:03:00.499Z,99312.53
2023-04-16T14:05:29.321Z,99312.53
2023-04-16T14:07:57.956Z,99307.31
2023-04-16T14:10:26.560Z,99313.53
2023-04-16T14:12:55.241Z,99310.72
2023-04-16T14:15:26.637Z,99310.34
2023-04-16T14:17:56.681Z,99309.16
2023-04-16T14:20:25.396Z,99308.13
2023-04-16T14:22:54.112Z,99306.94
2023-04-16T14:25:22.823Z,99303.53
2023-04-16T14:27:51.538Z,99313.00
2023-04-16T14:30:20.408Z,99312.56
2023-04-16T14:32:49.097Z,99309.53
2023-04-16T14:35:19.307Z,99308.34
2023-04-16T14:37:48.031Z,99313.34
2023-04-16T14:40:16.967Z,99308.97
2023-04-16T14:42:45.778Z,99306.56
2023-04-16T14:45:14.375Z,99303.31
2023-04-16T14:47:47.030Z,99313.75
2023-04-16T14:50:15.835Z,99308.13
2023-04-16T14:52:45.850Z,99310.56
2023-04-16T14:55:14.475Z,99312.81
2023-04-16T14:57:43.124Z,99318.22
2023-04-16T15:00:13.512Z,99321.81
2023-04-16T15:02:42.313Z,99315.41
2023-04-16T15:05:11.546Z,99325.84
2023-04-16T15:07:40.328Z,99320.19
2023-04-16T15:10:11.651Z,99321.41
2023-04-16T15:12:40.430Z,99316.59
2023-04-16T15:15:10.486Z,99317.19
2023-04-16T15:17:39.152Z,99321.41
2023-04-16T15:20:10.476Z,99314.97
2023-04-16T15:22:39.185Z,99310.34
2023-04-16T15:25:10.068Z,99316.75
2023-04-16T15:27:38.715Z,99313.75
2023-04-16T15:30:08.633Z,99317.19
2023-04-16T15:32:37.474Z,99316.16
2023-04-16T15:35:07.051Z,99319.78
2023-04-16T15:37:36.507Z,99316.56
2023-04-16T15:40:07.723Z,99316.72
2023-04-16T15:42:38.709Z,99321.72
2023-04-16T15:45:07.863Z,99319.56
2023-04-16T15:47:38.412Z,99319.34
2023-04-16T15:50:08.747Z,99328.38
2023-04-16T15:52:38.492Z,99327.38
2023-04-16T15:55:07.358Z,99329.00
2023-04-16T15:57:37.354Z,99329.00
2023-04-16T16:00:13.465Z,99331.81
2023-04-16T16:02:42.945Z,99333.19
2023-04-16T16:05:12.333Z,99330.19
2023-04-16T16:07:41.087Z,99327.97
2023-04-16T16:10:10.708Z,99347.81
2023-04-16T16:12:40.830Z,99340.63
2023-04-16T16:15:11.172Z,99327.72
2023-04-16T16:17:40.716Z,99333.38
2023-04-16T16:20:10.898Z,99341.00
2023-04-16T16:22:40.552Z,99342.19
2023-04-16T16:25:10.176Z,99334.97
2023-04-16T16:27:40.674Z,99335.78
2023-04-16T16:30:10.550Z,99345.84
2023-04-16T16:32:40.921Z,99343.84
2023-04-16T16:35:10.918Z,99340.22
2023-04-16T16:37:39.570Z,99344.66
2023-04-16T16:40:09.421Z,99347.03
2023-04-16T16:42:38.117Z,99347.59
2023-04-16T16:45:09.796Z,99343.81
2023-04-16T16:47:38.471Z,99345.41
2023-04-16T16:50:11.283Z,99350.44
2023-04-16T16:52:40.083Z,99348.25
2023-04-16T16:55:10.989Z,99347.66
2023-04-16T16:57:39.683Z,99349.03
2023-04-16T17:00:15.171Z,99351.47
2023-04-16T17:02:44.342Z,99348.66
2023-04-16T17:05:13.649Z,99352.69
2023-04-16T17:07:42.312Z,99351.06
2023-04-16T17:10:13.234Z,99353.09
2023-04-16T17:12:42.366Z,99359.91
2023-04-16T17:15:13.204Z,99352.09
2023-04-16T17:17:41.912Z,99356.47
2023-04-16T17:20:12.471Z,99350.47
2023-04-16T17:22:41.249Z,99352.28
2023-04-16T17:25:10.376Z,99357.31
2023-04-16T17:27:42.065Z,99353.88
2023-04-16T17:30:12.641Z,99352.47
2023-04-16T17:32:41.416Z,99360.31
2023-04-16T17:35:11.021Z,99354.91
2023-04-16T17:37:39.737Z,99360.88
2023-04-16T17:40:10.097Z,99360.69
2023-04-16T17:42:39.407Z,99364.91
2023-04-16T17:45:09.388Z,99354.66
2023-04-16T17:47:39.590Z,99357.31
2023-04-16T17:50:09.578Z,99359.91
2023-04-16T17:52:38.585Z,99370.56
2023-04-16T17:55:07.884Z,99376.94
2023-04-16T17:57:36.649Z,99375.56
2023-04-16T18:00:10.320Z,99372.34
2023-04-16T18:02:41.110Z,99372.13
2023-04-16T18:05:10.596Z,99376.16
2023-04-16T18:07:39.210Z,99386.00
2023-04-16T18:10:09.512Z,99379.41
2023-04-16T18:12:38.140Z,99385.63
2023-04-16T18:15:08.135Z,99381.59
2023-04-16T18:17:36.847Z,99385.56
2023-04-16T18:20:09.292Z,99386.59
2023-04-16T18:22:37.925Z,99391.19
2023-04-16T18:25:07.721Z,99392.59
2023-04-16T18:27:36.380Z,99397.22
2023-04-16T18:30:06.270Z,99395.81
2023-04-16T18:32:35.094Z,99395.03
2023-04-16T18:35:04.050Z,99394.41
2023-04-16T18:37:34.216Z,99397.56
2023-04-16T18:40:03.745Z,99401.63
2023-04-16T18:42:32.741Z,99402.00
2023-04-16T18:45:01.403Z,99405.84
2023-04-16T18:47:30.186Z,99405.59
2023-04-16T18:49:58.881Z,99412.44
2023-04-16T18:52:27.794Z,99411.44
2023-04-16T18:54:57.900Z,99411.06
2023-04-16T18:57:26.493Z,99414.25
2023-04-16T18:59:55.683Z,99418.66
2023-04-16T19:02:24.544Z,99420.47
2023-04-16T19:04:53.228Z,99417.06
2023-04-16T19:07:21.891Z,99419.16
2023-04-16T19:09:50.600Z,99420.41
2023-04-16T19:12:20.690Z,99419.22
2023-04-16T19:14:49.347Z,99420.34
2023-04-16T19:17:18.035Z,99427.63
2023-04-16T19:19:46.847Z,99428.41
2023-04-16T19:22:15.567Z,99426.78
2023-04-16T19:24:44.282Z,99435.00
2023-04-16T19:27:12.991Z,99425.22
2023-04-16T19:29:43.504Z,99433.06
2023-04-16T19:32:13.996Z,99432.88
2023-04-16T19:34:42.810Z,99429.59
2023-04-16T19:37:11.552Z,99431.81
2023-04-16T19:39:40.361Z,99428.41
2023-04-16T19:42:09.084Z,99439.16
2023-04-16T19:44:37.721Z,99431.97
2023-04-16T19:47:08.435Z,99426.50
2023-04-16T19:49:37.089Z,99433.22
2023-04-16T19:52:06.043Z,99443.81
2023-04-16T19:54:37.069Z,99438.78
2023-04-16T19:57:06.003Z,99446.44
2023-04-16T19:59:34.845Z,99440.78
2023-04-16T20:02:03.622Z,99442.78
2023-04-16T20:04:34.419Z,99447.25
2023-04-16T20:07:03.496Z,99447.25
2023-04-16T20:09:32.812Z,99440.41
2023-04-16T20:12:01.870Z,99447.25
2023-04-16T20:14:30.533Z,99454.44
2023-04-16T20:16:59.194Z,99439.56
2023-04-16T20:19:31.540Z,99445.63
2023-04-16T20:22:01.954Z,99447.25
2023-04-16T20:24:31.674Z,99438.59
2023-04-16T20:27:00.419Z,99443.81
2023-04-16T20:29:29.086Z,99439.22
2023-04-16T20:31:59.230Z,99448.03
2023-04-16T20:34:28.664Z,99445.44
2023-04-16T20:36:57.973Z,99445.22
2023-04-16T20:39:28.051Z,99445.03
2023-04-16T20:41:57.509Z,99448.44
2023-04-16T20:44:33.106Z,99438.97
2023-04-16T20:47:01.792Z,99448.88
2023-04-16T20:49:31.059Z,99447.66
2023-04-16T20:51:59.705Z,99446.69
2023-04-16T20:54:29.828Z,99438.06
2023-04-16T20:56:58.835Z,99441.91
2023-04-16T20:59:27.477Z,99435.25
2023-04-16T21:01:56.585Z,99438.84
2023-04-16T21:04:25.437Z,99430.44
2023-04-16T21:06:54.300Z,99439.66
2023-04-16T21:09:23.186Z,99439.22
2023-04-16T21:12:47.561Z,99426.78
2023-04-16T21:15:17.744Z,99435.63
2023-04-16T21:17:46.481Z,99439.22
2023-04-16T21:20:15.647Z,99441.03
2023-04-16T21:22:44.280Z,99432.41
2023-04-16T21:25:13.153Z,99434.41
2023-04-16T21:27:41.765Z,99439.63
2023-04-16T21:30:11.145Z,99437.81
2023-04-16T21:32:41.210Z,99440.22
2023-04-16T21:35:10.768Z,99439.22
2023-04-16T21:37:39.435Z,99435.19
2023-04-16T21:40:09.316Z,99440.03
2023-04-16T21:42:39.683Z,99441.66
2023-04-16T21:45:09.439Z,99440.66
2023-04-16T21:47:38.425Z,99433.63
2023-04-16T21:50:09.623Z,99436.25
2023-04-16T21:52:40.555Z,99440.03
2023-04-16T21:55:10.408Z,99442.81
2023-04-16T21:57:39.055Z,99439.44
2023-04-16T22:00:12.461Z,99439.63
2023-04-16T22:02:42.595Z,99435.19
2023-04-16T22:05:13.041Z,99438.44
2023-04-16T22:07:41.644Z,99435.19
2023-04-16T22:10:11.741Z,99434.03
2023-04-16T22:12:41.594Z,99429.97
2023-04-16T22:15:10.652Z,99436.81
2023-04-16T22:17:39.414Z,99431.59
2023-04-16T22:20:11.690Z,99428.16
2023-04-16T22:22:42.316Z,99431.97
2023-04-16T22:25:11.362Z,99435.38
2023-04-16T22:27:40.022Z,99417.00
2023-04-16T22:30:09.729Z,99431.34
2023-04-16T22:32:38.347Z,99415.50
2023-04-16T22:35:07.648Z,99428.50
2023-04-16T22:37:36.473Z,99429.13
2023-04-16T22:40:10.751Z,99428.28
2023-04-16T22:42:39.333Z,99430.38
2023-04-16T22:45:08.811Z,99420.31
2023-04-16T22:47:37.568Z,99423.28
2023-04-16T22:50:07.321Z,99424.69
2023-04-16T22:52:36.023Z,99422.72
2023-04-16T22:55:06.902Z,99417.03
2023-04-16T22:57:35.524Z,99421.47
2023-04-16T23:00:06.688Z,99415.78
2023-04-16T23:02:35.404Z,99415.78
2023-04-16T23:05:04.871Z,99417.63
2023-04-16T23:07:33.499Z,99419.63
2023-04-16T23:10:02.218Z,99419.81
2023-04-16T23:12:32.231Z,99422.22
2023-04-16T23:15:01.066Z,99424.63
2023-04-16T23:17:29.794Z,99423.03
2023-04-16T23:19:58.426Z,99423.81
2023-04-16T23:22:27.514Z,99420.78
2023-04-16T23:24:56.377Z,99420.22
2023-04-16T23:27:25.037Z,99423.03
2023-04-16T23:29:55.033Z,99417.81
2023-04-16T23:32:23.732Z,99421.41
2023-04-16T23:34:52.340Z,99424.63
2023-04-16T23:37:20.987Z,99424.25
2023-04-16T23:39:49.631Z,99420.41
2023-04-16T23:42:18.232Z,99414.22
2023-04-16T23:44:47.206Z,99412.22
2023-04-16T23:47:17.214Z,99416.44
2023-04-16T23:49:45.911Z,99412.22
2023-04-16T23:52:14.524Z,99417.63
2023-04-16T23:54:44.738Z,99414.22
2023-04-16T23:57:13.599Z,99418.41
2023-04-16T23:59:42.251Z,99405.75
